This is the latest recevied weather packets stored in our database for station/object KE0SWK-13. If no packets are shown the sender has not sent any weather packets the latest 10 day(s).
| Time | Temp. | Humidity | Pressure | Rain* | Wind** | Luminosity | Snow |
|---|---|---|---|---|---|---|---|
| 1777552554 | 9.44° C | 89% | 1021.4 hPa | 0 mm | - | - | - |
| 1777543526 | 5° C | 96% | 1021.1 hPa | 0 mm | - | - | - |
| 1777542952 | 5° C | 96% | 1021 hPa | 0 mm | - | - | - |
| 1777541749 | 5° C | 96% | 1020.8 hPa | 0 mm | - | - | - |
| 1777541139 | 5° C | 95% | 1020.9 hPa | 0 mm | - | - | - |
| 1777537521 | 5.56° C | 96% | 1020.4 hPa | 0 mm | - | - | - |
| 1777535128 | 5.56° C | 95% | 1020.6 hPa | 0 mm | - | - | - |
| 1777534534 | 5° C | 94% | 1020.8 hPa | 0 mm | - | - | - |
| 1777533330 | 6.11° C | 94% | 1020.7 hPa | 0 mm | - | - | - |
| 1777530921 | 6.67° C | 93% | 1021 hPa | 0 mm | - | - | - |
| 1777527323 | 7.22° C | 90% | 1021.2 hPa | 0 mm | - | - | - |
| 1777526119 | 7.22° C | 92% | 1021.3 hPa | 0 mm | - | - | - |
| 1777515330 | 11.67° C | 70% | 1020.9 hPa | 0 mm | - | - | - |
| 1777511722 | 13.33° C | 59% | 1020.3 hPa | 0 mm | - | - | - |
| 1777509928 | 14.44° C | 52% | 1019.9 hPa | 0 mm | - | - | - |
| 1777509343 | 15° C | 50% | 1019.9 hPa | 0 mm | - | - | - |
| 1777507524 | 15.56° C | 48% | 1019.6 hPa | 0 mm | - | - | - |
| 1777506323 | 16.11° C | 46% | 1019.5 hPa | 0 mm | - | - | - |
| 1777505749 | 16.67° C | 44% | 1019.5 hPa | 0 mm | - | - | - |
| 1777499720 | 17.22° C | 45% | 1019.5 hPa | 0 mm | - | - | - |
| 1777497328 | 17.78° C | 45% | 1019.7 hPa | 0 mm | - | - | - |
| 1777496736 | 17.78° C | 44% | 1019.8 hPa | 0 mm | - | - | - |
| 1777492527 | 18.33° C | 44% | 1020.8 hPa | 0 mm | - | - | - |
| 1777490743 | 18.33° C | 45% | 1021.2 hPa | 0 mm | - | - | - |
| 1777488930 | 19.44° C | 45% | 1021.2 hPa | 0 mm | - | - | - |
* Rain latest hour (hover to see other rain measurements)
** Current wind speed in m/s (hover to see current wind gust speed)